KDTA

Delta Municipal Airport

Delta, Utah, USA
METAR KDTA 190615Z AUTO 00000KT 10SM CLR M02/M04 A3040 RMK AO1
Observed Flight Rules
Jan-19 @ 06:15 UTC (25 minutes ago) Visual Flight Rules
Visibility Clouds
10 miles
  • Clear skies
Temperatures Readings
Current -2°C / 28°F
Dewpoint -4°C / 25°F
Humidity 86%
Altimeter 30.4" Hg
Pressure 1029.41 hPa
Elevation 1402
METAR KDTA 190615Z AUTO 00000KT 10SM CLR M02/M04 A3040 RMK AO1
Observed Flight Rules
Jan-19 @ 06:15 UTC
(25 minutes ago)
VFR
Clouds
  • Clear skies
Temperature Dewpoint
-2°C / 28°F -4°C / 25°F
Humidity Altimeter Pressure
86% 30.4" Hg 1029.41 hPa